createdAt,value
2022-12-23T00:01:46.305Z,61.38
2022-12-23T00:04:12.810Z,61.60
2022-12-23T00:06:39.254Z,61.37
2022-12-23T00:09:05.687Z,61.50
2022-12-23T00:11:32.210Z,61.68
2022-12-23T00:14:21.536Z,61.25
2022-12-23T00:16:49.400Z,60.97
2022-12-23T00:19:16.028Z,61.35
2022-12-23T00:21:42.971Z,61.40
2022-12-23T00:24:09.520Z,62.10
2022-12-23T00:26:36.028Z,61.96
2022-12-23T00:29:04.589Z,61.69
2022-12-23T00:31:31.311Z,61.43
2022-12-23T00:33:58.133Z,60.81
2022-12-23T00:36:32.213Z,60.97
2022-12-23T00:39:18.402Z,60.91
2022-12-23T00:42:03.586Z,61.04
2022-12-23T00:44:29.982Z,61.50
2022-12-23T00:46:59.245Z,61.71
2022-12-23T00:49:45.428Z,61.83
2022-12-23T00:52:13.474Z,60.74
2022-12-23T00:54:40.232Z,61.84
2022-12-23T00:57:07.143Z,61.60
2022-12-23T00:59:34.184Z,61.24
2022-12-23T01:02:19.462Z,61.58
2022-12-23T01:05:06.196Z,61.46
2022-12-23T01:07:32.708Z,61.55
2022-12-23T01:09:59.353Z,62.59
2022-12-23T01:12:25.782Z,62.30
2022-12-23T01:14:52.264Z,62.44
2022-12-23T01:17:19.029Z,62.45
2022-12-23T01:19:45.944Z,62.29
2022-12-23T01:22:12.452Z,62.69
2022-12-23T01:24:38.854Z,61.96
2022-12-23T01:27:05.268Z,62.06
2022-12-23T01:29:31.818Z,61.87
2022-12-23T01:31:58.326Z,61.79
2022-12-23T01:34:26.002Z,61.18
2022-12-23T01:36:54.899Z,60.64
2022-12-23T01:39:21.284Z,61.18
2022-12-23T01:42:06.660Z,62.88
2022-12-23T01:45:05.621Z,62.71
2022-12-23T01:47:32.070Z,63.00
2022-12-23T01:50:07.590Z,61.73
2022-12-23T01:52:36.191Z,61.76
2022-12-23T01:55:02.815Z,63.79
2022-12-23T01:57:29.632Z,63.99
2022-12-23T02:00:14.787Z,63.37
2022-12-23T02:03:01.131Z,63.13
2022-12-23T02:05:27.857Z,64.18
2022-12-23T02:08:13.340Z,62.95
2022-12-23T02:10:59.964Z,61.91
2022-12-23T02:14:05.028Z,63.40
2022-12-23T02:16:33.723Z,63.37
2022-12-23T02:19:11.655Z,63.15
2022-12-23T02:21:44.281Z,62.93
2022-12-23T02:24:40.880Z,62.94
2022-12-23T02:27:07.267Z,62.47
2022-12-23T02:29:52.549Z,63.10
2022-12-23T02:32:32.105Z,62.78
2022-12-23T02:35:20.723Z,61.98
2022-12-23T02:37:55.882Z,61.57
2022-12-23T02:40:31.327Z,61.56
2022-12-23T02:42:57.631Z,61.28
2022-12-23T02:45:27.416Z,61.69
2022-12-23T02:47:56.818Z,62.32
2022-12-23T02:50:29.824Z,61.71
2022-12-23T02:52:58.783Z,62.01
2022-12-23T02:55:30.217Z,62.33
2022-12-23T02:57:59.708Z,63.33
2022-12-23T03:00:26.811Z,62.85
2022-12-23T03:02:53.887Z,61.65
2022-12-23T03:05:24.762Z,62.14
2022-12-23T03:07:53.419Z,61.31
2022-12-23T03:10:33.819Z,61.63
2022-12-23T03:13:23.815Z,62.04
2022-12-23T03:16:09.317Z,62.95
2022-12-23T03:18:38.684Z,62.10
2022-12-23T03:21:05.365Z,61.62
2022-12-23T03:23:38.238Z,61.14
2022-12-23T03:26:11.767Z,62.03
2022-12-23T03:28:38.224Z,62.11
2022-12-23T03:31:08.135Z,61.74
2022-12-23T03:33:37.265Z,62.43
2022-12-23T03:36:12.326Z,61.96
2022-12-23T03:38:40.726Z,62.38
2022-12-23T03:41:09.640Z,62.43
2022-12-23T03:43:50.673Z,63.19
2022-12-23T03:46:20.340Z,62.23
2022-12-23T03:48:49.130Z,62.70
2022-12-23T03:51:18.358Z,62.94
2022-12-23T03:53:57.199Z,62.99
2022-12-23T03:56:27.329Z,63.07
2022-12-23T03:58:57.743Z,63.89
2022-12-23T04:01:50.699Z,63.80
2022-12-23T04:04:36.049Z,64.29
2022-12-23T04:07:25.694Z,63.97
2022-12-23T04:09:53.415Z,65.50
2022-12-23T04:12:22.340Z,65.34
2022-12-23T04:14:49.299Z,65.50
2022-12-23T04:17:16.349Z,64.21
2022-12-23T04:19:45.252Z,64.79
2022-12-23T04:22:12.492Z,65.01
2022-12-23T04:24:39.309Z,66.61
2022-12-23T04:27:06.689Z,66.63
2022-12-23T04:29:33.340Z,66.47
2022-12-23T04:32:00.108Z,66.25
2022-12-23T04:34:26.648Z,65.69
2022-12-23T04:36:53.284Z,66.95
2022-12-23T04:39:19.962Z,65.58
2022-12-23T04:41:46.373Z,67.08
2022-12-23T04:44:12.927Z,66.00
2022-12-23T04:46:39.677Z,67.41
2022-12-23T04:49:06.385Z,67.15
2022-12-23T04:51:32.883Z,66.28
2022-12-23T04:53:59.375Z,65.71
2022-12-23T04:56:26.120Z,66.47
2022-12-23T04:58:52.837Z,66.70
2022-12-23T05:01:19.474Z,65.09
2022-12-23T05:03:45.947Z,65.62
2022-12-23T05:06:12.575Z,66.12
2022-12-23T05:08:39.066Z,65.81
2022-12-23T05:11:06.039Z,67.11
2022-12-23T05:13:32.490Z,66.48
2022-12-23T05:15:58.989Z,68.29
2022-12-23T05:18:25.576Z,67.79
2022-12-23T05:20:51.996Z,69.29
2022-12-23T05:23:24.702Z,66.85
2022-12-23T05:25:52.696Z,67.34
2022-12-23T05:28:25.423Z,69.68
2022-12-23T05:31:18.126Z,71.50
2022-12-23T05:33:44.682Z,68.09
2022-12-23T05:36:11.578Z,66.65
2022-12-23T05:38:37.911Z,67.13
2022-12-23T05:41:04.948Z,68.69
2022-12-23T05:43:31.272Z,70.28
2022-12-23T05:45:57.738Z,68.80
2022-12-23T05:48:24.111Z,67.22
2022-12-23T05:50:51.080Z,66.93
2022-12-23T05:53:17.690Z,67.08
2022-12-23T05:55:44.014Z,66.62
2022-12-23T05:58:10.522Z,67.73
2022-12-23T06:00:37.268Z,69.16
2022-12-23T06:03:03.890Z,69.46
2022-12-23T06:05:30.354Z,70.30
2022-12-23T06:07:57.012Z,71.26
2022-12-23T06:10:23.527Z,74.58
2022-12-23T06:12:50.091Z,71.96
2022-12-23T06:15:16.510Z,72.44
2022-12-23T06:17:42.888Z,73.92
2022-12-23T06:20:12.175Z,70.52
2022-12-23T06:22:44.729Z,69.51
2022-12-23T06:25:11.041Z,69.84
2022-12-23T06:27:37.529Z,70.46
2022-12-23T06:30:04.342Z,69.63
2022-12-23T06:32:36.219Z,70.03
2022-12-23T06:35:05.024Z,67.98
2022-12-23T06:37:31.376Z,66.12
2022-12-23T06:39:57.687Z,65.64
2022-12-23T06:42:24.038Z,68.23
2022-12-23T06:44:50.337Z,70.46
2022-12-23T06:47:16.657Z,68.53
2022-12-23T06:49:43.069Z,67.24
2022-12-23T06:52:10.045Z,66.70
2022-12-23T06:54:36.494Z,67.24
2022-12-23T06:57:03.190Z,70.59
2022-12-23T06:59:29.931Z,70.60
2022-12-23T07:01:56.396Z,70.02
2022-12-23T07:04:23.010Z,67.22
2022-12-23T07:06:49.622Z,66.74
2022-12-23T07:09:15.927Z,67.70
2022-12-23T07:11:42.325Z,66.11
2022-12-23T07:14:08.685Z,66.59
2022-12-23T07:16:35.254Z,66.08
2022-12-23T07:19:01.621Z,68.10
2022-12-23T07:21:29.786Z,67.15
2022-12-23T07:23:56.905Z,70.36
2022-12-23T07:26:23.236Z,69.70
2022-12-23T07:28:49.553Z,70.08
2022-12-23T07:31:16.028Z,68.49
2022-12-23T07:33:42.532Z,70.01
2022-12-23T07:36:08.973Z,70.30
2022-12-23T07:38:35.256Z,71.72
2022-12-23T07:41:01.658Z,70.47
2022-12-23T07:43:27.997Z,69.79
2022-12-23T07:45:59.942Z,67.59
2022-12-23T07:48:27.285Z,67.54
2022-12-23T07:50:53.571Z,69.78
2022-12-23T07:53:19.846Z,68.19
2022-12-23T07:55:48.090Z,70.12
2022-12-23T07:58:17.895Z,72.49
2022-12-23T08:00:44.589Z,70.11
2022-12-23T08:03:11.871Z,68.78
2022-12-23T08:05:38.396Z,67.33
2022-12-23T08:08:05.081Z,73.63
2022-12-23T08:10:31.434Z,75.79
2022-12-23T08:13:00.848Z,71.00
2022-12-23T08:15:27.321Z,71.86
2022-12-23T08:17:55.295Z,72.79
2022-12-23T08:20:21.853Z,70.44
2022-12-23T08:22:48.281Z,68.75
2022-12-23T08:25:14.842Z,67.86
2022-12-23T08:27:41.326Z,68.41
2022-12-23T08:30:08.220Z,70.57
2022-12-23T08:32:34.771Z,70.05
2022-12-23T08:35:01.278Z,71.96
2022-12-23T08:37:27.760Z,71.09
2022-12-23T08:39:54.296Z,70.33
2022-12-23T08:42:20.811Z,71.88
2022-12-23T08:44:47.264Z,69.17
2022-12-23T08:47:13.636Z,69.66
2022-12-23T08:49:40.302Z,68.13
2022-12-23T08:52:06.588Z,70.32
2022-12-23T08:54:32.950Z,69.85
2022-12-23T08:56:59.403Z,69.04
2022-12-23T08:59:25.867Z,67.88
2022-12-23T09:01:52.483Z,66.67
2022-12-23T09:04:19.174Z,66.29
2022-12-23T09:06:46.098Z,66.40
2022-12-23T09:09:14.368Z,67.28
2022-12-23T09:11:40.977Z,67.24
2022-12-23T09:14:10.045Z,68.84
2022-12-23T09:16:36.898Z,69.10
2022-12-23T09:19:03.461Z,67.99
2022-12-23T09:21:29.867Z,67.33
2022-12-23T09:23:56.530Z,66.71
2022-12-23T09:26:24.252Z,66.88
2022-12-23T09:28:51.107Z,65.80
2022-12-23T09:31:17.934Z,65.36
2022-12-23T09:33:47.172Z,67.04
2022-12-23T09:36:13.814Z,66.43
2022-12-23T09:38:40.351Z,68.03
2022-12-23T09:41:26.928Z,71.28
2022-12-23T09:44:01.197Z,69.17
2022-12-23T09:46:30.005Z,68.95
2022-12-23T09:49:02.814Z,69.08
2022-12-23T09:51:30.549Z,66.29
2022-12-23T09:54:00.183Z,65.48
2022-12-23T09:56:32.845Z,65.84
2022-12-23T09:59:02.134Z,66.60
2022-12-23T10:01:28.493Z,65.28
2022-12-23T10:04:03.923Z,66.63
2022-12-23T10:06:30.757Z,67.61
2022-12-23T10:08:59.784Z,67.52
2022-12-23T10:11:29.925Z,65.81
2022-12-23T10:14:02.752Z,65.80
2022-12-23T10:16:31.433Z,68.36
2022-12-23T10:18:57.947Z,67.47
2022-12-23T10:21:33.402Z,67.75
2022-12-23T10:24:04.095Z,67.25
2022-12-23T10:26:45.621Z,66.31
2022-12-23T10:29:18.257Z,65.52
2022-12-23T10:31:45.186Z,64.75
2022-12-23T10:34:17.541Z,64.12
2022-12-23T10:37:00.761Z,64.45
2022-12-23T10:39:30.245Z,64.91
2022-12-23T10:42:05.772Z,64.41
2022-12-23T10:44:42.317Z,64.70
2022-12-23T10:47:08.918Z,64.66
2022-12-23T10:49:47.590Z,66.52
2022-12-23T10:52:17.472Z,66.74
2022-12-23T10:54:45.276Z,65.66
2022-12-23T10:57:12.407Z,64.38
2022-12-23T10:59:39.291Z,64.76
2022-12-23T11:02:12.141Z,64.45
2022-12-23T11:04:45.971Z,64.09
2022-12-23T11:10:13.217Z,64.47
2022-12-23T11:12:42.591Z,65.24
2022-12-23T11:15:26.724Z,65.21
2022-12-23T11:18:07.716Z,65.28
2022-12-23T11:20:35.287Z,68.03
2022-12-23T11:23:02.781Z,66.55
2022-12-23T11:25:43.512Z,65.51
2022-12-23T11:28:10.813Z,66.03
2022-12-23T11:30:50.327Z,66.06
2022-12-23T11:33:29.662Z,68.35
2022-12-23T11:36:25.209Z,67.97
2022-12-23T11:39:02.543Z,70.86
2022-12-23T11:41:30.305Z,69.86
2022-12-23T11:44:01.830Z,68.59
2022-12-23T11:46:29.886Z,66.44
2022-12-23T11:49:06.960Z,65.45
2022-12-23T11:51:33.411Z,65.83
2022-12-23T11:54:00.960Z,64.65
2022-12-23T11:56:28.986Z,67.04
2022-12-23T11:59:02.224Z,66.47
2022-12-23T12:01:30.390Z,68.32
2022-12-23T12:03:59.576Z,65.89
2022-12-23T12:06:26.733Z,64.87
2022-12-23T12:08:54.365Z,65.66
2022-12-23T12:11:44.185Z,66.51
2022-12-23T12:14:19.760Z,66.17
2022-12-23T12:16:51.819Z,68.69
2022-12-23T12:19:30.619Z,67.05
2022-12-23T12:22:00.563Z,64.53
2022-12-23T12:24:37.001Z,64.39
2022-12-23T12:27:06.598Z,66.68
2022-12-23T12:29:33.105Z,69.53
2022-12-23T12:32:00.119Z,70.64
2022-12-23T12:34:38.332Z,70.85
2022-12-23T12:37:25.899Z,68.58
2022-12-23T12:40:07.374Z,67.33
2022-12-23T12:42:40.223Z,66.66
2022-12-23T12:45:16.599Z,65.54
2022-12-23T12:48:09.981Z,69.20
2022-12-23T12:50:49.093Z,69.96
2022-12-23T12:53:18.694Z,68.07
2022-12-23T12:55:47.953Z,68.67
2022-12-23T12:58:21.773Z,70.44
2022-12-23T13:00:57.152Z,71.33
2022-12-23T13:03:44.515Z,71.09
2022-12-23T13:06:29.616Z,66.17
2022-12-23T13:09:08.892Z,65.16
2022-12-23T13:11:58.043Z,63.42
2022-12-23T13:14:33.902Z,61.00
2022-12-23T13:17:07.373Z,59.84
2022-12-23T13:19:39.782Z,59.31
2022-12-23T13:22:09.069Z,59.78
2022-12-23T13:24:54.381Z,59.51
2022-12-23T13:27:30.210Z,59.15
2022-12-23T13:30:05.019Z,59.18
2022-12-23T13:32:31.289Z,59.02
2022-12-23T13:35:08.085Z,58.73
2022-12-23T13:37:53.299Z,58.93
2022-12-23T13:40:22.630Z,59.34
2022-12-23T13:42:52.485Z,59.50
2022-12-23T13:45:19.516Z,58.86
2022-12-23T13:47:52.129Z,58.69
2022-12-23T13:50:24.601Z,59.03
2022-12-23T13:52:51.118Z,58.63
2022-12-23T13:55:36.152Z,60.00
2022-12-23T13:58:02.429Z,60.10
2022-12-23T14:00:32.950Z,59.61
2022-12-23T14:03:02.445Z,60.40
2022-12-23T14:05:35.339Z,59.82
2022-12-23T14:08:06.962Z,58.62
2022-12-23T14:10:34.285Z,58.02
2022-12-23T14:13:03.048Z,59.08
2022-12-23T14:15:48.826Z,58.55
2022-12-23T14:18:34.170Z,58.06
2022-12-23T14:21:19.201Z,58.41
2022-12-23T14:23:45.462Z,57.69
2022-12-23T14:26:11.837Z,57.94
2022-12-23T14:29:10.718Z,57.72
2022-12-23T14:31:41.743Z,57.72
2022-12-23T14:34:17.159Z,57.65
2022-12-23T14:37:02.312Z,57.40
2022-12-23T14:39:33.104Z,57.31
2022-12-23T14:42:05.786Z,58.37
2022-12-23T14:44:36.085Z,57.95
2022-12-23T14:47:04.267Z,57.74
2022-12-23T14:49:40.720Z,59.21
2022-12-23T14:52:26.335Z,61.88
2022-12-23T14:55:21.125Z,59.57
2022-12-23T14:57:40.143Z,58.99
2022-12-23T15:00:06.848Z,59.55
2022-12-23T15:02:35.483Z,58.58
2022-12-23T15:05:02.608Z,58.00
2022-12-23T15:07:32.693Z,57.51
2022-12-23T15:10:01.429Z,57.78
2022-12-23T15:12:36.482Z,57.77
2022-12-23T15:15:05.310Z,57.71
2022-12-23T15:17:36.189Z,58.20
2022-12-23T15:20:12.484Z,58.74
2022-12-23T15:22:39.562Z,59.29
2022-12-23T15:25:18.260Z,58.88
2022-12-23T15:27:44.772Z,58.87
2022-12-23T15:30:12.668Z,59.45
2022-12-23T15:32:41.555Z,59.79
2022-12-23T15:35:08.669Z,60.15
2022-12-23T15:37:35.199Z,61.25
2022-12-23T15:40:13.370Z,60.68
2022-12-23T15:42:46.141Z,59.85
2022-12-23T15:45:21.766Z,58.72
2022-12-23T15:47:48.371Z,58.69
2022-12-23T15:50:15.987Z,58.58
2022-12-23T15:52:43.320Z,58.24
2022-12-23T15:55:21.404Z,59.95
2022-12-23T15:57:50.581Z,62.93
2022-12-23T16:00:22.016Z,61.74
2022-12-23T16:03:00.443Z,61.17
2022-12-23T16:05:36.055Z,61.77
2022-12-23T16:08:16.245Z,62.46
2022-12-23T16:10:43.636Z,61.92
2022-12-23T16:13:18.122Z,62.82
2022-12-23T16:15:45.118Z,63.90
2022-12-23T16:18:13.482Z,62.23
2022-12-23T16:20:45.514Z,61.94
2022-12-23T16:23:12.830Z,62.71
2022-12-23T16:25:51.058Z,61.77
2022-12-23T16:28:24.522Z,61.69
2022-12-23T16:30:56.434Z,61.09
2022-12-23T16:33:38.349Z,60.32
2022-12-23T16:36:37.394Z,61.17
2022-12-23T16:39:09.234Z,63.95
2022-12-23T16:41:36.172Z,63.25
2022-12-23T16:44:03.603Z,62.68
2022-12-23T16:46:38.163Z,61.73
2022-12-23T16:49:06.826Z,61.93
2022-12-23T16:51:35.210Z,61.41
2022-12-23T16:54:01.900Z,63.48
2022-12-23T16:56:30.247Z,62.45
2022-12-23T16:58:56.806Z,62.14
2022-12-23T17:01:28.403Z,61.96
2022-12-23T17:03:55.936Z,61.65
2022-12-23T17:06:23.153Z,62.11
2022-12-23T17:08:49.870Z,61.88
2022-12-23T17:11:17.339Z,61.94
2022-12-23T17:13:44.916Z,61.97
2022-12-23T17:16:29.514Z,62.64
2022-12-23T17:18:55.915Z,62.23
2022-12-23T17:21:25.264Z,61.79
2022-12-23T17:23:56.803Z,62.00
2022-12-23T17:26:23.536Z,63.66
2022-12-23T17:28:50.372Z,64.13
2022-12-23T17:31:24.346Z,63.47
2022-12-23T17:33:54.296Z,62.87
2022-12-23T17:36:20.897Z,63.08
2022-12-23T17:38:47.322Z,61.99
2022-12-23T17:41:31.386Z,61.56
2022-12-23T17:43:58.553Z,61.84
2022-12-23T17:46:25.800Z,61.50
2022-12-23T17:48:52.625Z,60.98
2022-12-23T17:51:21.613Z,61.33
2022-12-23T17:53:53.171Z,62.25
2022-12-23T17:56:24.414Z,62.51
2022-12-23T17:58:51.503Z,62.60
2022-12-23T18:01:21.035Z,63.39
2022-12-23T18:03:48.579Z,62.45
2022-12-23T18:06:16.156Z,61.96
2022-12-23T18:08:43.517Z,61.54
2022-12-23T18:11:17.361Z,63.37
2022-12-23T18:13:44.472Z,63.06
2022-12-23T18:16:12.829Z,63.60
2022-12-23T18:18:46.138Z,63.81
2022-12-23T18:21:26.681Z,62.23
2022-12-23T18:23:58.923Z,62.13
2022-12-23T18:26:25.387Z,61.56
2022-12-23T18:28:53.980Z,62.47
2022-12-23T18:31:23.138Z,62.36
2022-12-23T18:33:50.619Z,61.98
2022-12-23T18:36:20.786Z,62.05
2022-12-23T18:38:47.597Z,62.40
2022-12-23T18:41:14.161Z,62.23
2022-12-23T18:43:41.076Z,62.03
2022-12-23T18:46:08.206Z,61.74
2022-12-23T18:48:34.613Z,61.62
2022-12-23T18:51:02.482Z,61.55
2022-12-23T18:53:29.157Z,61.10
2022-12-23T18:55:55.893Z,61.78
2022-12-23T18:58:22.381Z,61.70
2022-12-23T19:00:49.930Z,61.52
2022-12-23T19:03:27.353Z,61.77
2022-12-23T19:05:54.471Z,61.58
2022-12-23T19:08:27.876Z,61.80
2022-12-23T19:10:55.080Z,62.37
2022-12-23T19:13:28.644Z,62.01
2022-12-23T19:15:55.193Z,61.71
2022-12-23T19:18:23.387Z,61.60
2022-12-23T19:20:50.004Z,62.41
2022-12-23T19:23:23.948Z,62.11
2022-12-23T19:25:55.381Z,61.94
2022-12-23T19:28:22.167Z,62.22
2022-12-23T19:30:49.074Z,62.92
2022-12-23T19:33:15.844Z,62.07
2022-12-23T19:35:42.971Z,63.80
2022-12-23T19:38:09.479Z,63.01
2022-12-23T19:40:36.333Z,64.45
2022-12-23T19:43:03.350Z,67.70
2022-12-23T19:45:30.507Z,69.04
2022-12-23T19:47:57.217Z,72.43
2022-12-23T19:50:23.939Z,73.61
2022-12-23T19:52:51.752Z,72.85
2022-12-23T19:55:19.859Z,72.17
2022-12-23T19:57:47.896Z,68.93
2022-12-23T20:00:16.058Z,68.18
2022-12-23T20:02:43.615Z,69.38
2022-12-23T20:05:10.700Z,71.90
2022-12-23T20:07:37.847Z,71.62
2022-12-23T20:10:05.185Z,72.13
2022-12-23T20:12:31.783Z,72.05
2022-12-23T20:14:58.898Z,69.16
2022-12-23T20:17:25.472Z,69.10
2022-12-23T20:19:52.052Z,69.54
2022-12-23T20:22:18.550Z,68.49
2022-12-23T20:24:45.115Z,67.64
2022-12-23T20:27:15.732Z,68.78
2022-12-23T20:29:44.456Z,65.82
2022-12-23T20:32:11.156Z,68.08
2022-12-23T20:34:40.076Z,67.92
2022-12-23T20:37:07.820Z,66.41
2022-12-23T20:39:34.743Z,64.93
2022-12-23T20:42:01.436Z,65.73
2022-12-23T20:44:35.063Z,68.40
2022-12-23T20:47:03.993Z,65.70
2022-12-23T20:49:30.617Z,67.40
2022-12-23T20:51:57.109Z,68.63
2022-12-23T20:54:28.120Z,65.73
2022-12-23T20:56:58.731Z,64.19
2022-12-23T20:59:25.523Z,63.60
2022-12-23T21:01:52.221Z,66.60
2022-12-23T21:04:18.901Z,66.46
2022-12-23T21:06:45.610Z,64.50
2022-12-23T21:09:13.990Z,67.95
2022-12-23T21:11:43.133Z,67.94
2022-12-23T21:14:10.792Z,68.49
2022-12-23T21:16:38.805Z,70.42
2022-12-23T21:19:06.534Z,69.38
2022-12-23T21:21:33.202Z,66.83
2022-12-23T21:24:00.835Z,67.44
2022-12-23T21:26:28.983Z,65.26
2022-12-23T21:29:00.295Z,66.04
2022-12-23T21:31:27.408Z,66.76
2022-12-23T21:33:54.175Z,66.14
2022-12-23T21:36:21.995Z,70.06
2022-12-23T21:38:49.083Z,69.20
2022-12-23T21:41:17.442Z,66.03
2022-12-23T21:43:44.056Z,65.38
2022-12-23T21:46:11.942Z,64.27
2022-12-23T21:48:38.992Z,65.22
2022-12-23T21:51:24.964Z,63.19
2022-12-23T21:53:52.998Z,65.05
2022-12-23T21:56:21.369Z,64.72
2022-12-23T21:58:47.973Z,64.16
2022-12-23T22:01:16.048Z,64.85
2022-12-23T22:03:43.251Z,63.92
2022-12-23T22:06:12.802Z,63.87
2022-12-23T22:08:40.061Z,64.87
2022-12-23T22:11:08.182Z,63.60
2022-12-23T22:13:35.067Z,64.57
2022-12-23T22:16:02.057Z,63.00
2022-12-23T22:18:28.733Z,64.55
2022-12-23T22:20:55.193Z,67.32
2022-12-23T22:23:21.758Z,65.58
2022-12-23T22:25:51.955Z,67.30
2022-12-23T22:28:18.639Z,66.05
2022-12-23T22:30:46.291Z,64.53
2022-12-23T22:33:12.859Z,65.77
2022-12-23T22:35:39.447Z,63.45
2022-12-23T22:38:06.027Z,63.00
2022-12-23T22:40:32.590Z,63.41
2022-12-23T22:42:59.216Z,64.12
2022-12-23T22:45:25.733Z,62.13
2022-12-23T22:47:52.302Z,62.07
2022-12-23T22:50:19.615Z,61.73
2022-12-23T22:52:46.255Z,63.15
2022-12-23T22:55:12.615Z,64.85
2022-12-23T22:57:39.615Z,65.46
2022-12-23T23:00:12.211Z,65.47
2022-12-23T23:02:39.585Z,66.79
2022-12-23T23:05:12.452Z,66.17
2022-12-23T23:07:40.448Z,66.15
2022-12-23T23:10:08.166Z,67.25
2022-12-23T23:12:35.050Z,65.96
2022-12-23T23:15:01.915Z,67.25
2022-12-23T23:17:29.579Z,67.80
2022-12-23T23:19:56.281Z,67.76
2022-12-23T23:22:23.778Z,68.16
2022-12-23T23:24:50.353Z,69.88
2022-12-23T23:27:17.007Z,69.82
2022-12-23T23:29:43.695Z,69.10
2022-12-23T23:32:10.811Z,69.83
2022-12-23T23:34:38.172Z,71.91
2022-12-23T23:37:05.299Z,69.11
2022-12-23T23:39:32.193Z,68.42
2022-12-23T23:41:59.890Z,71.10
2022-12-23T23:44:27.038Z,72.75
2022-12-23T23:46:53.806Z,70.94
2022-12-23T23:49:21.078Z,71.74
2022-12-23T23:51:48.052Z,71.99
2022-12-23T23:54:14.777Z,70.11
2022-12-23T23:56:42.245Z,69.85
2022-12-23T23:59:09.193Z,68.71
